sensor_id;sensor_type;location;lat;lon;timestamp;pressure;altitude;pressure_sealevel;temperature
51693;BMP280;37777;53.066;21.638;2023-07-31T00:06:36;99870.41;;;19.82
51693;BMP280;37777;53.066;21.638;2023-07-31T00:13:39;99868.50;;;19.79
51693;BMP280;37777;53.066;21.638;2023-07-31T00:20:41;99842.66;;;19.76
51693;BMP280;37777;53.066;21.638;2023-07-31T00:27:43;99854.28;;;19.84
51693;BMP280;37777;53.066;21.638;2023-07-31T00:34:47;99857.03;;;19.84
51693;BMP280;37777;53.066;21.638;2023-07-31T00:41:49;99855.84;;;19.85
51693;BMP280;37777;53.066;21.638;2023-07-31T00:48:52;99855.78;;;19.89
51693;BMP280;37777;53.066;21.638;2023-07-31T00:55:54;99864.13;;;20.01
51693;BMP280;37777;53.066;21.638;2023-07-31T01:02:56;99857.59;;;19.95
51693;BMP280;37777;53.066;21.638;2023-07-31T01:10:26;99861.75;;;19.83
51693;BMP280;37777;53.066;21.638;2023-07-31T01:17:29;99859.09;;;19.80
51693;BMP280;37777;53.066;21.638;2023-07-31T01:25:15;99860.91;;;19.67
51693;BMP280;37777;53.066;21.638;2023-07-31T01:32:12;99865.13;;;19.51
51693;BMP280;37777;53.066;21.638;2023-07-31T01:39:14;99871.59;;;19.41
51693;BMP280;37777;53.066;21.638;2023-07-31T01:46:17;99867.63;;;19.42
51693;BMP280;37777;53.066;21.638;2023-07-31T01:53:19;99862.25;;;19.38
51693;BMP280;37777;53.066;21.638;2023-07-31T02:00:21;99871.91;;;19.23
51693;BMP280;37777;53.066;21.638;2023-07-31T02:07:23;99868.16;;;19.13
51693;BMP280;37777;53.066;21.638;2023-07-31T02:14:25;99876.69;;;19.19
51693;BMP280;37777;53.066;21.638;2023-07-31T02:21:28;99866.63;;;19.12
51693;BMP280;37777;53.066;21.638;2023-07-31T02:28:30;99882.72;;;18.87
51693;BMP280;37777;53.066;21.638;2023-07-31T02:35:32;99889.72;;;18.88
51693;BMP280;37777;53.066;21.638;2023-07-31T02:42:34;99886.38;;;18.76
51693;BMP280;37777;53.066;21.638;2023-07-31T02:49:36;99897.22;;;18.83
51693;BMP280;37777;53.066;21.638;2023-07-31T02:56:38;99889.72;;;18.88
51693;BMP280;37777;53.066;21.638;2023-07-31T03:03:41;99908.31;;;18.76
51693;BMP280;37777;53.066;21.638;2023-07-31T03:10:44;99900.28;;;18.62
51693;BMP280;37777;53.066;21.638;2023-07-31T03:17:46;99900.34;;;18.58
51693;BMP280;37777;53.066;21.638;2023-07-31T03:24:48;99910.41;;;18.38
51693;BMP280;37777;53.066;21.638;2023-07-31T03:31:50;99911.22;;;18.35
51693;BMP280;37777;53.066;21.638;2023-07-31T03:38:52;99918.00;;;18.23
51693;BMP280;37777;53.066;21.638;2023-07-31T03:45:54;99918.63;;;18.38
51693;BMP280;37777;53.066;21.638;2023-07-31T03:52:56;99921.91;;;18.25
51693;BMP280;37777;53.066;21.638;2023-07-31T03:59:59;99918.44;;;18.52
51693;BMP280;37777;53.066;21.638;2023-07-31T04:07:01;99916.72;;;18.62
51693;BMP280;37777;53.066;21.638;2023-07-31T04:14:03;99924.75;;;18.76
51693;BMP280;37777;53.066;21.638;2023-07-31T04:21:05;99930.94;;;18.80
51693;BMP280;37777;53.066;21.638;2023-07-31T04:28:08;99936.91;;;18.99
51693;BMP280;37777;53.066;21.638;2023-07-31T04:35:11;99941.59;;;19.26
51693;BMP280;37777;53.066;21.638;2023-07-31T04:42:13;99934.19;;;18.99
51693;BMP280;37777;53.066;21.638;2023-07-31T04:49:15;99947.03;;;18.78
51693;BMP280;37777;53.066;21.638;2023-07-31T04:56:17;99945.91;;;18.99
51693;BMP280;37777;53.066;21.638;2023-07-31T05:03:19;99942.81;;;19.44
51693;BMP280;37777;53.066;21.638;2023-07-31T05:10:21;99934.78;;;19.57
51693;BMP280;37777;53.066;21.638;2023-07-31T05:17:23;99937.38;;;19.64
51693;BMP280;37777;53.066;21.638;2023-07-31T05:24:25;99952.84;;;19.55
51693;BMP280;37777;53.066;21.638;2023-07-31T05:31:27;99948.19;;;19.52
51693;BMP280;37777;53.066;21.638;2023-07-31T05:38:29;99965.78;;;19.54
51693;BMP280;37777;53.066;21.638;2023-07-31T05:45:32;99969.81;;;19.70
51693;BMP280;37777;53.066;21.638;2023-07-31T05:52:34;99980.09;;;19.66
51693;BMP280;37777;53.066;21.638;2023-07-31T05:59:36;99984.28;;;19.50
51693;BMP280;37777;53.066;21.638;2023-07-31T06:06:39;99990.00;;;19.36
51693;BMP280;37777;53.066;21.638;2023-07-31T06:13:44;99992.75;;;19.36
51693;BMP280;37777;53.066;21.638;2023-07-31T06:20:52;100003.47;;;19.27
51693;BMP280;37777;53.066;21.638;2023-07-31T06:27:58;100009.69;;;19.31
51693;BMP280;37777;53.066;21.638;2023-07-31T06:35:05;100000.69;;;19.30
51693;BMP280;37777;53.066;21.638;2023-07-31T06:42:21;99999.44;;;19.35
51693;BMP280;37777;53.066;21.638;2023-07-31T06:49:28;100007.19;;;19.40
51693;BMP280;37777;53.066;21.638;2023-07-31T06:56:35;99999.22;;;19.46
51693;BMP280;37777;53.066;21.638;2023-07-31T07:03:43;100020.41;;;19.45
51693;BMP280;37777;53.066;21.638;2023-07-31T07:10:47;99999.84;;;19.33
51693;BMP280;37777;53.066;21.638;2023-07-31T07:17:51;100022.34;;;19.72
51693;BMP280;37777;53.066;21.638;2023-07-31T07:24:56;100009.69;;;20.18
51693;BMP280;37777;53.066;21.638;2023-07-31T07:31:59;100026.00;;;20.25
51693;BMP280;37777;53.066;21.638;2023-07-31T07:39:03;100008.31;;;20.10
51693;BMP280;37777;53.066;21.638;2023-07-31T07:46:11;100027.63;;;20.22
51693;BMP280;37777;53.066;21.638;2023-07-31T07:53:18;100032.50;;;20.35
51693;BMP280;37777;53.066;21.638;2023-07-31T08:00:24;100030.47;;;20.75
51693;BMP280;37777;53.066;21.638;2023-07-31T08:07:30;100029.84;;;21.04
51693;BMP280;37777;53.066;21.638;2023-07-31T08:14:40;100026.91;;;21.28
51693;BMP280;37777;53.066;21.638;2023-07-31T08:21:45;100023.31;;;21.47
51693;BMP280;37777;53.066;21.638;2023-07-31T08:28:59;100024.75;;;21.52
51693;BMP280;37777;53.066;21.638;2023-07-31T08:36:06;100021.78;;;21.75
51693;BMP280;37777;53.066;21.638;2023-07-31T08:43:11;100021.97;;;21.68
51693;BMP280;37777;53.066;21.638;2023-07-31T08:50:24;100028.16;;;22.02
51693;BMP280;37777;53.066;21.638;2023-07-31T08:57:34;100029.78;;;21.99
51693;BMP280;37777;53.066;21.638;2023-07-31T09:04:44;100019.50;;;21.87
51693;BMP280;37777;53.066;21.638;2023-07-31T09:11:50;100030.97;;;22.27
51693;BMP280;37777;53.066;21.638;2023-07-31T09:19:02;100012.69;;;22.33
51693;BMP280;37777;53.066;21.638;2023-07-31T09:26:08;100026.34;;;22.50
51693;BMP280;37777;53.066;21.638;2023-07-31T09:33:10;100019.31;;;22.36
51693;BMP280;37777;53.066;21.638;2023-07-31T09:40:25;100019.28;;;22.49
51693;BMP280;37777;53.066;21.638;2023-07-31T09:47:27;100019.28;;;22.49
51693;BMP280;37777;53.066;21.638;2023-07-31T09:54:32;100026.03;;;22.73
51693;BMP280;37777;53.066;21.638;2023-07-31T10:01:35;100031.22;;;22.97
51693;BMP280;37777;53.066;21.638;2023-07-31T10:08:38;100033.31;;;22.93
51693;BMP280;37777;53.066;21.638;2023-07-31T10:15:41;100033.63;;;22.82
51693;BMP280;37777;53.066;21.638;2023-07-31T10:22:46;100026.34;;;22.88
51693;BMP280;37777;53.066;21.638;2023-07-31T10:29:50;100018.75;;;22.92
51693;BMP280;37777;53.066;21.638;2023-07-31T10:44:48;100025.28;;;23.33
51693;BMP280;37777;53.066;21.638;2023-07-31T10:51:57;100025.09;;;23.28
51693;BMP280;37777;53.066;21.638;2023-07-31T10:59:03;100014.47;;;23.39
51693;BMP280;37777;53.066;21.638;2023-07-31T11:06:08;100010.38;;;23.31
51693;BMP280;37777;53.066;21.638;2023-07-31T11:13:17;100022.41;;;23.37
51693;BMP280;37777;53.066;21.638;2023-07-31T11:20:22;100010.78;;;23.55
51693;BMP280;37777;53.066;21.638;2023-07-31T11:27:38;100005.75;;;23.63
51693;BMP280;37777;53.066;21.638;2023-07-31T11:34:56;100009.94;;;23.67
51693;BMP280;37777;53.066;21.638;2023-07-31T11:42:02;100006.28;;;23.70
51693;BMP280;37777;53.066;21.638;2023-07-31T11:49:05;100000.22;;;23.63
51693;BMP280;37777;53.066;21.638;2023-07-31T11:56:13;99997.28;;;23.79
51693;BMP280;37777;53.066;21.638;2023-07-31T12:03:25;99989.59;;;23.74
51693;BMP280;37777;53.066;21.638;2023-07-31T12:10:32;99987.50;;;23.87
51693;BMP280;37777;53.066;21.638;2023-07-31T12:17:40;99996.81;;;24.03
51693;BMP280;37777;53.066;21.638;2023-07-31T12:24:43;99981.78;;;24.04
51693;BMP280;37777;53.066;21.638;2023-07-31T12:31:49;99974.81;;;24.21
51693;BMP280;37777;53.066;21.638;2023-07-31T12:38:52;99979.88;;;24.23
51693;BMP280;37777;53.066;21.638;2023-07-31T12:45:55;99970.97;;;24.18
51693;BMP280;37777;53.066;21.638;2023-07-31T12:52:58;99966.41;;;23.93
51693;BMP280;37777;53.066;21.638;2023-07-31T13:00:00;99964.50;;;23.90
51693;BMP280;37777;53.066;21.638;2023-07-31T13:07:02;99953.22;;;23.75
51693;BMP280;37777;53.066;21.638;2023-07-31T13:14:04;99947.78;;;23.63
51693;BMP280;37777;53.066;21.638;2023-07-31T13:21:07;99950.75;;;23.99
51693;BMP280;37777;53.066;21.638;2023-07-31T13:28:09;99943.31;;;23.87
51693;BMP280;37777;53.066;21.638;2023-07-31T13:35:11;99936.06;;;24.12
51693;BMP280;37777;53.066;21.638;2023-07-31T13:42:13;99940.56;;;24.18
51693;BMP280;37777;53.066;21.638;2023-07-31T13:49:15;99928.09;;;24.14
51693;BMP280;37777;53.066;21.638;2023-07-31T13:56:17;99936.38;;;23.83
51693;BMP280;37777;53.066;21.638;2023-07-31T14:03:22;99933.94;;;23.85
51693;BMP280;37777;53.066;21.638;2023-07-31T14:10:26;99924.72;;;24.10
51693;BMP280;37777;53.066;21.638;2023-07-31T14:17:28;99928.63;;;24.31
51693;BMP280;37777;53.066;21.638;2023-07-31T14:24:31;99925.56;;;23.97
51693;BMP280;37777;53.066;21.638;2023-07-31T14:31:33;99917.25;;;24.29
51693;BMP280;37777;53.066;21.638;2023-07-31T14:38:35;99914.66;;;24.25
51693;BMP280;37777;53.066;21.638;2023-07-31T14:45:37;99916.03;;;23.89
51693;BMP280;37777;53.066;21.638;2023-07-31T14:52:39;99905.47;;;23.66
51693;BMP280;37777;53.066;21.638;2023-07-31T14:59:41;99898.84;;;23.41
51693;BMP280;37777;53.066;21.638;2023-07-31T15:06:43;99907.59;;;23.39
51693;BMP280;37777;53.066;21.638;2023-07-31T15:13:46;99894.84;;;23.33
51693;BMP280;37777;53.066;21.638;2023-07-31T15:20:48;99901.69;;;23.28
51693;BMP280;37777;53.066;21.638;2023-07-31T15:27:50;99910.03;;;23.15
51693;BMP280;37777;53.066;21.638;2023-07-31T15:34:52;99895.38;;;23.06
51693;BMP280;37777;53.066;21.638;2023-07-31T15:41:54;99898.13;;;23.06
51693;BMP280;37777;53.066;21.638;2023-07-31T15:48:56;99891.13;;;22.92
51693;BMP280;37777;53.066;21.638;2023-07-31T15:55:58;99896.84;;;22.97
51693;BMP280;37777;53.066;21.638;2023-07-31T16:03:01;99893.00;;;22.82
51693;BMP280;37777;53.066;21.638;2023-07-31T16:10:03;99894.91;;;22.72
51693;BMP280;37777;53.066;21.638;2023-07-31T16:17:05;99892.16;;;22.72
51693;BMP280;37777;53.066;21.638;2023-07-31T16:24:07;99902.09;;;22.57
51693;BMP280;37777;53.066;21.638;2023-07-31T16:31:09;99889.03;;;22.48
51693;BMP280;37777;53.066;21.638;2023-07-31T16:38:12;99893.09;;;22.44
51693;BMP280;37777;53.066;21.638;2023-07-31T16:45:14;99885.50;;;22.35
51693;BMP280;37777;53.066;21.638;2023-07-31T16:52:17;99884.06;;;22.30
51693;BMP280;37777;53.066;21.638;2023-07-31T16:59:19;99893.09;;;22.44
51693;BMP280;37777;53.066;21.638;2023-07-31T17:06:21;99893.53;;;22.55
51693;BMP280;37777;53.066;21.638;2023-07-31T17:13:23;99895.38;;;22.71
51693;BMP280;37777;53.066;21.638;2023-07-31T17:20:26;99890.97;;;22.60
51693;BMP280;37777;53.066;21.638;2023-07-31T17:27:28;99898.38;;;22.51
51693;BMP280;37777;53.066;21.638;2023-07-31T17:34:32;99899.94;;;22.52
51693;BMP280;37777;53.066;21.638;2023-07-31T17:41:35;99907.84;;;22.50
51693;BMP280;37777;53.066;21.638;2023-07-31T17:48:37;99903.88;;;22.38
51693;BMP280;37777;53.066;21.638;2023-07-31T17:55:40;99904.56;;;22.29
51693;BMP280;37777;53.066;21.638;2023-07-31T18:02:43;99906.22;;;22.27
51693;BMP280;37777;53.066;21.638;2023-07-31T18:09:48;99887.25;;;22.16
51693;BMP280;37777;53.066;21.638;2023-07-31T18:16:50;99895.53;;;22.16
51693;BMP280;37777;53.066;21.638;2023-07-31T18:23:53;99897.50;;;22.15
51693;BMP280;37777;53.066;21.638;2023-07-31T18:30:59;99899.03;;;22.04
51693;BMP280;37777;53.066;21.638;2023-07-31T18:38:02;99895.59;;;21.87
51693;BMP280;37777;53.066;21.638;2023-07-31T18:45:05;99902.09;;;21.80
51693;BMP280;37777;53.066;21.638;2023-07-31T18:52:08;99906.25;;;21.72
51693;BMP280;37777;53.066;21.638;2023-07-31T18:59:11;99894.44;;;21.58
51693;BMP280;37777;53.066;21.638;2023-07-31T19:06:13;99898.03;;;21.43
51693;BMP280;37777;53.066;21.638;2023-07-31T19:13:15;99886.19;;;21.29
51693;BMP280;37777;53.066;21.638;2023-07-31T19:20:18;99903.59;;;21.26
51693;BMP280;37777;53.066;21.638;2023-07-31T19:27:21;99888.88;;;21.16
51693;BMP280;37777;53.066;21.638;2023-07-31T19:34:23;99888.44;;;21.18
51693;BMP280;37777;53.066;21.638;2023-07-31T19:41:29;99890.78;;;21.03
51693;BMP280;37777;53.066;21.638;2023-07-31T19:48:31;99897.34;;;20.93
51693;BMP280;37777;53.066;21.638;2023-07-31T19:55:34;99896.78;;;20.85
51693;BMP280;37777;53.066;21.638;2023-07-31T20:02:42;99896.13;;;20.61
51693;BMP280;37777;53.066;21.638;2023-07-31T20:09:47;99901.44;;;20.52
51693;BMP280;37777;53.066;21.638;2023-07-31T20:16:51;99907.47;;;20.47
51693;BMP280;37777;53.066;21.638;2023-07-31T20:23:55;99902.06;;;20.43
51693;BMP280;37777;53.066;21.638;2023-07-31T20:31:00;99895.06;;;20.38
51693;BMP280;37777;53.066;21.638;2023-07-31T20:38:06;99883.75;;;20.36
51693;BMP280;37777;53.066;21.638;2023-07-31T20:45:20;99876.03;;;20.31
51693;BMP280;37777;53.066;21.638;2023-07-31T20:52:28;99869.47;;;20.25
51693;BMP280;37777;53.066;21.638;2023-07-31T20:59:36;99863.53;;;20.10
51693;BMP280;37777;53.066;21.638;2023-07-31T21:06:41;99854.91;;;19.92
51693;BMP280;37777;53.066;21.638;2023-07-31T21:13:45;99843.44;;;19.77
51693;BMP280;37777;53.066;21.638;2023-07-31T21:20:52;99831.63;;;19.80
51693;BMP280;37777;53.066;21.638;2023-07-31T21:27:57;99826.09;;;19.63
51693;BMP280;37777;53.066;21.638;2023-07-31T21:35:03;99816.25;;;19.66
51693;BMP280;37777;53.066;21.638;2023-07-31T21:42:06;99817.44;;;19.45
51693;BMP280;37777;53.066;21.638;2023-07-31T21:49:09;99811.59;;;19.43
51693;BMP280;37777;53.066;21.638;2023-07-31T21:56:12;99806.97;;;19.40
51693;BMP280;37777;53.066;21.638;2023-07-31T22:03:14;99809.94;;;19.49
51693;BMP280;37777;53.066;21.638;2023-07-31T22:10:16;99806.47;;;19.45
51693;BMP280;37777;53.066;21.638;2023-07-31T22:17:18;99783.94;;;19.54
51693;BMP280;37777;53.066;21.638;2023-07-31T22:24:20;99783.03;;;19.60
51693;BMP280;37777;53.066;21.638;2023-07-31T22:31:22;99783.25;;;19.50
51693;BMP280;37777;53.066;21.638;2023-07-31T22:38:24;99777.19;;;19.58
51693;BMP280;37777;53.066;21.638;2023-07-31T22:45:26;99776.72;;;19.63
51693;BMP280;37777;53.066;21.638;2023-07-31T22:52:28;99774.31;;;19.66
51693;BMP280;37777;53.066;21.638;2023-07-31T22:59:31;99762.63;;;19.61
51693;BMP280;37777;53.066;21.638;2023-07-31T23:06:33;99763.13;;;19.56
51693;BMP280;37777;53.066;21.638;2023-07-31T23:13:36;99754.91;;;19.56
51693;BMP280;37777;53.066;21.638;2023-07-31T23:20:38;99744.84;;;19.50
51693;BMP280;37777;53.066;21.638;2023-07-31T23:27:40;99726.22;;;19.41
51693;BMP280;37777;53.066;21.638;2023-07-31T23:34:43;99731.06;;;19.53
51693;BMP280;37777;53.066;21.638;2023-07-31T23:41:45;99721.88;;;19.43
51693;BMP280;37777;53.066;21.638;2023-07-31T23:48:47;99718.00;;;19.41
51693;BMP280;37777;53.066;21.638;2023-07-31T23:55:50;99721.97;;;19.40
